Currituck — AEFR — position and weather

sailwx.info

Track history (hours):
 
Tides and Currents Weather Stations Pressure Air Temp Water Temp Dewpoint Dewpoint Depression Visibility Wind Speed Wind Dir Waves Ship Positions

Currituck

Last reported at 2015-Mar-28 23:34 UTC. Time now 2015-Mar-28 23:58 UTC.
Position N 34°43' W 076°40'.

Length 45 m; draft 3 m.

Type: Dredging. MMSI: 369970446.

Date/timePositionNaut miles runAvg speedWind from/ knotsBaromVisibWave heightAir tempDewpointWater temp
2015-Mar-28 23:34N 34°43' W 076°40'0 0.0
2015-Mar-28 22:33N 34°43' W 076°40'1 0.6
2015-Mar-28 21:34N 34°43' W 076°41'2 1.8
2015-Mar-28 20:33N 34°41' W 076°40'2 2.4
2015-Mar-28 19:34N 34°43' W 076°38'1 0.8
2015-Mar-28 18:34N 34°43' W 076°37'3 3.3
2015-Mar-28 17:33N 34°41' W 076°40'2 2.1
2015-Mar-28 16:34N 34°43' W 076°41'1 0.5
2015-Mar-28 15:33N 34°43' W 076°40'0 0.0
2015-Mar-28 14:34N 34°43' W 076°40'0 0.2
2015-Mar-28 13:34N 34°43' W 076°40'1 1.3
2015-Mar-28 12:34N 34°42' W 076°40'3 2.7
2015-Mar-28 11:34N 34°42' W 076°37'2 1.8
2015-Mar-28 10:34N 34°43' W 076°39'1 0.9
2015-Mar-28 09:34N 34°43' W 076°40'0 0.0
2015-Mar-28 08:33N 34°43' W 076°40'0 0.0
2015-Mar-28 07:34N 34°43' W 076°40'0 0.0
2015-Mar-28 06:34N 34°43' W 076°40'0 0.0
2015-Mar-28 05:34N 34°43' W 076°40'0 0.0
2015-Mar-28 04:34N 34°43' W 076°40'0 0.0
2015-Mar-28 03:34N 34°43' W 076°40'0 0.0
2015-Mar-28 02:34N 34°43' W 076°40'0 0.0
2015-Mar-28 01:34N 34°43' W 076°40'0 0.0
2015-Mar-28 00:33N 34°43' W 076°40'0 0.0
2015-Mar-27 23:34N 34°43' W 076°40'0 0.0
2015-Mar-27 22:34N 34°43' W 076°40'1 0.9
2015-Mar-27 21:33N 34°42' W 076°41'2 2.1
2015-Mar-27 20:34N 34°43' W 076°38'2 2.3
2015-Mar-27 19:34N 34°41' W 076°40'1 0.7
2015-Mar-27 18:33N 34°42' W 076°40'3 2.8
2015-Mar-27 17:34N 34°42' W 076°37'1 1.4
2015-Mar-27 16:34N 34°42' W 076°38'2 1.7
2015-Mar-27 15:33N 34°42' W 076°40'0 0.4
2015-Mar-27 14:34N 34°41' W 076°40'1 1.1
2015-Mar-27 13:34N 34°42' W 076°41'2 2.2
2015-Mar-27 12:34N 34°40' W 076°41'3 3.0
2015-Mar-27 11:34N 34°43' W 076°39'0 0.4
2015-Mar-27 10:34N 34°43' W 076°39'1 0.7
2015-Mar-27 09:33N 34°43' W 076°40'0 0.0
2015-Mar-27 08:34N 34°43' W 076°40'0 0.0
2015-Mar-27 07:33N 34°43' W 076°40'0 0.0
2015-Mar-27 06:34N 34°43' W 076°40'0 0.0
2015-Mar-27 05:34N 34°43' W 076°40'0 0.0
2015-Mar-27 04:34N 34°43' W 076°40'0 0.0
2015-Mar-27 03:34N 34°43' W 076°40'0 0.0
2015-Mar-27 02:33N 34°43' W 076°40'0 0.0
2015-Mar-27 01:34N 34°43' W 076°40'0 0.0
2015-Mar-27 00:34N 34°43' W 076°40'0 0.0
2015-Mar-26 23:33N 34°43' W 076°40'0 0.0
2015-Mar-26 22:34N 34°43' W 076°40'0 0.0
2015-Mar-26 21:34N 34°43' W 076°40'0 0.0
2015-Mar-26 20:34N 34°43' W 076°40'3 3.0
2015-Mar-26 19:34N 34°40' W 076°41'4 3.9
2015-Mar-26 18:34N 34°42' W 076°37'1 1.2
2015-Mar-26 17:34N 34°42' W 076°38'1 1.5
2015-Mar-26 16:34N 34°42' W 076°40'3 2.7
2015-Mar-26 15:34N 34°42' W 076°37'4 4.1
2015-Mar-26 14:34N 34°40' W 076°41'2 2.3
2015-Mar-26 13:34N 34°42' W 076°41'1 1.1
2015-Mar-26 12:34N 34°41' W 076°40'2 1.8
2015-Mar-26 11:34N 34°43' W 076°39'1 0.8
2015-Mar-26 10:34N 34°43' W 076°40'0 0.5
2015-Mar-26 09:34N 34°43' W 076°40'0 0.0
2015-Mar-26 08:34N 34°43' W 076°40'0 0.0
2015-Mar-26 07:33N 34°43' W 076°40'0 0.0
2015-Mar-26 06:34N 34°43' W 076°40'0 0.0
2015-Mar-26 05:33N 34°43' W 076°40'0 0.0
2015-Mar-26 04:33N 34°43' W 076°40'0 0.0
2015-Mar-26 03:34N 34°43' W 076°40'0 0.0
2015-Mar-26 02:34N 34°43' W 076°40'0 0.0
2015-Mar-26 01:34N 34°43' W 076°40'0 0.0
2015-Mar-26 00:34N 34°43' W 076°40'0 0.0
2015-Mar-25 23:33N 34°43' W 076°40'0 0.0
2015-Mar-25 22:34N 34°43' W 076°40'0 0.0
2015-Mar-25 21:33N 34°43' W 076°40'1 1.3
2015-Mar-25 20:34N 34°42' W 076°40'1 0.6
2015-Mar-25 19:34N 34°42' W 076°41'3 3.1
2015-Mar-25 18:34N 34°42' W 076°37'3 3.3
2015-Mar-25 17:34N 34°41' W 076°40'2 2.5
2015-Mar-25 16:34N 34°43' W 076°39'2 1.9
2015-Mar-25 15:34N 34°43' W 076°41'0 0.4
2015-Mar-25 14:34N 34°42' W 076°41'2 1.6
2015-Mar-25 13:34N 34°43' W 076°42'0 0.0
2015-Mar-25 12:34N 34°43' W 076°42'3 3.1
2015-Mar-25 11:34N 34°40' W 076°41'2 2.0
2015-Mar-25 10:34N 34°42' W 076°41'1 0.9
2015-Mar-25 09:33N 34°43' W 076°40'0 0.0
2015-Mar-25 08:34N 34°43' W 076°40'0 0.0
2015-Mar-25 07:33N 34°43' W 076°40'0 0.0
2015-Mar-25 06:34N 34°43' W 076°40'0 0.0
2015-Mar-25 05:33N 34°43' W 076°40'0 0.0
2015-Mar-25 04:34N 34°43' W 076°40'0 0.0
2015-Mar-25 03:34N 34°43' W 076°40'0 0.0
2015-Mar-25 02:34N 34°43' W 076°40'0 0.0
2015-Mar-25 01:34N 34°43' W 076°40'0 0.0
2015-Mar-25 00:34N 34°43' W 076°40'0 0.0
2015-Mar-24 23:33N 34°43' W 076°40'0 0.1
2015-Mar-24 22:34N 34°43' W 076°40'4 3.6
2015-Mar-24 21:33N 34°47' W 076°41'9 8.8
2015-Mar-24 20:34N 34°55' W 076°39'  
Track history (hours):
 
Tides and Currents Weather Stations Pressure Air Temp Water Temp Dewpoint Dewpoint Depression Visibility Wind Speed Wind Dir Waves Ship Positions

Currituck

Last reported at 2015-Mar-28 23:34 UTC. Time now 2015-Mar-28 23:58 UTC.
Position N 34°43' W 076°40'.

Length 45 m; draft 3 m.

Type: Dredging. MMSI: 369970446.

Date/timePositionNaut miles runAvg speedWind from/ knotsBaromVisibWave heightAir tempDewpointWater temp
2015-Mar-28 23:34N 34°43' W 076°40'0 0.0
2015-Mar-28 22:33N 34°43' W 076°40'1 0.6
2015-Mar-28 21:34N 34°43' W 076°41'2 1.8
2015-Mar-28 20:33N 34°41' W 076°40'2 2.4
2015-Mar-28 19:34N 34°43' W 076°38'1 0.8
2015-Mar-28 18:34N 34°43' W 076°37'3 3.3
2015-Mar-28 17:33N 34°41' W 076°40'2 2.1
2015-Mar-28 16:34N 34°43' W 076°41'1 0.5
2015-Mar-28 15:33N 34°43' W 076°40'0 0.0
2015-Mar-28 14:34N 34°43' W 076°40'0 0.2
2015-Mar-28 13:34N 34°43' W 076°40'1 1.3
2015-Mar-28 12:34N 34°42' W 076°40'3 2.7
2015-Mar-28 11:34N 34°42' W 076°37'2 1.8
2015-Mar-28 10:34N 34°43' W 076°39'1 0.9
2015-Mar-28 09:34N 34°43' W 076°40'0 0.0
2015-Mar-28 08:33N 34°43' W 076°40'0 0.0
2015-Mar-28 07:34N 34°43' W 076°40'0 0.0
2015-Mar-28 06:34N 34°43' W 076°40'0 0.0
2015-Mar-28 05:34N 34°43' W 076°40'0 0.0
2015-Mar-28 04:34N 34°43' W 076°40'0 0.0
2015-Mar-28 03:34N 34°43' W 076°40'0 0.0
2015-Mar-28 02:34N 34°43' W 076°40'0 0.0
2015-Mar-28 01:34N 34°43' W 076°40'0 0.0
2015-Mar-28 00:33N 34°43' W 076°40'0 0.0
2015-Mar-27 23:34N 34°43' W 076°40'0 0.0
2015-Mar-27 22:34N 34°43' W 076°40'1 0.9
2015-Mar-27 21:33N 34°42' W 076°41'2 2.1
2015-Mar-27 20:34N 34°43' W 076°38'2 2.3
2015-Mar-27 19:34N 34°41' W 076°40'1 0.7
2015-Mar-27 18:33N 34°42' W 076°40'3 2.8
2015-Mar-27 17:34N 34°42' W 076°37'1 1.4
2015-Mar-27 16:34N 34°42' W 076°38'2 1.7
2015-Mar-27 15:33N 34°42' W 076°40'0 0.4
2015-Mar-27 14:34N 34°41' W 076°40'1 1.1
2015-Mar-27 13:34N 34°42' W 076°41'2 2.2
2015-Mar-27 12:34N 34°40' W 076°41'3 3.0
2015-Mar-27 11:34N 34°43' W 076°39'0 0.4
2015-Mar-27 10:34N 34°43' W 076°39'1 0.7
2015-Mar-27 09:33N 34°43' W 076°40'0 0.0
2015-Mar-27 08:34N 34°43' W 076°40'0 0.0
2015-Mar-27 07:33N 34°43' W 076°40'0 0.0
2015-Mar-27 06:34N 34°43' W 076°40'0 0.0
2015-Mar-27 05:34N 34°43' W 076°40'0 0.0
2015-Mar-27 04:34N 34°43' W 076°40'0 0.0
2015-Mar-27 03:34N 34°43' W 076°40'0 0.0
2015-Mar-27 02:33N 34°43' W 076°40'0 0.0
2015-Mar-27 01:34N 34°43' W 076°40'0 0.0
2015-Mar-27 00:34N 34°43' W 076°40'0 0.0
2015-Mar-26 23:33N 34°43' W 076°40'0 0.0
2015-Mar-26 22:34N 34°43' W 076°40'0 0.0
2015-Mar-26 21:34N 34°43' W 076°40'0 0.0
2015-Mar-26 20:34N 34°43' W 076°40'3 3.0
2015-Mar-26 19:34N 34°40' W 076°41'4 3.9
2015-Mar-26 18:34N 34°42' W 076°37'1 1.2
2015-Mar-26 17:34N 34°42' W 076°38'1 1.5
2015-Mar-26 16:34N 34°42' W 076°40'3 2.7
2015-Mar-26 15:34N 34°42' W 076°37'4 4.1
2015-Mar-26 14:34N 34°40' W 076°41'2 2.3
2015-Mar-26 13:34N 34°42' W 076°41'1 1.1
2015-Mar-26 12:34N 34°41' W 076°40'2 1.8
2015-Mar-26 11:34N 34°43' W 076°39'1 0.8
2015-Mar-26 10:34N 34°43' W 076°40'0 0.5
2015-Mar-26 09:34N 34°43' W 076°40'0 0.0
2015-Mar-26 08:34N 34°43' W 076°40'0 0.0
2015-Mar-26 07:33N 34°43' W 076°40'0 0.0
2015-Mar-26 06:34N 34°43' W 076°40'0 0.0
2015-Mar-26 05:33N 34°43' W 076°40'0 0.0
2015-Mar-26 04:33N 34°43' W 076°40'0 0.0
2015-Mar-26 03:34N 34°43' W 076°40'0 0.0
2015-Mar-26 02:34N 34°43' W 076°40'0 0.0
2015-Mar-26 01:34N 34°43' W 076°40'0 0.0
2015-Mar-26 00:34N 34°43' W 076°40'0 0.0
2015-Mar-25 23:33N 34°43' W 076°40'0 0.0
2015-Mar-25 22:34N 34°43' W 076°40'0 0.0
2015-Mar-25 21:33N 34°43' W 076°40'1 1.3
2015-Mar-25 20:34N 34°42' W 076°40'1 0.6
2015-Mar-25 19:34N 34°42' W 076°41'3 3.1
2015-Mar-25 18:34N 34°42' W 076°37'3 3.3
2015-Mar-25 17:34N 34°41' W 076°40'2 2.5
2015-Mar-25 16:34N 34°43' W 076°39'2 1.9
2015-Mar-25 15:34N 34°43' W 076°41'0 0.4
2015-Mar-25 14:34N 34°42' W 076°41'2 1.6
2015-Mar-25 13:34N 34°43' W 076°42'0 0.0
2015-Mar-25 12:34N 34°43' W 076°42'3 3.1
2015-Mar-25 11:34N 34°40' W 076°41'2 2.0
2015-Mar-25 10:34N 34°42' W 076°41'1 0.9
2015-Mar-25 09:33N 34°43' W 076°40'0 0.0
2015-Mar-25 08:34N 34°43' W 076°40'0 0.0
2015-Mar-25 07:33N 34°43' W 076°40'0 0.0
2015-Mar-25 06:34N 34°43' W 076°40'0 0.0
2015-Mar-25 05:33N 34°43' W 076°40'0 0.0
2015-Mar-25 04:34N 34°43' W 076°40'0 0.0
2015-Mar-25 03:34N 34°43' W 076°40'0 0.0
2015-Mar-25 02:34N 34°43' W 076°40'0 0.0
2015-Mar-25 01:34N 34°43' W 076°40'0 0.0
2015-Mar-25 00:34N 34°43' W 076°40'0 0.0
2015-Mar-24 23:33N 34°43' W 076°40'0 0.1
2015-Mar-24 22:34N 34°43' W 076°40'4 3.6
2015-Mar-24 21:33N 34°47' W 076°41'9 8.8
2015-Mar-24 20:34N 34°55' W 076°39'  

Dump ship's entire track history